Abraham Bay, Bahamas

7:27 AM EDT on July 31, 2014 (GMT -0400)
Providenciales International (MBPV) Elev 16 ft | 21.77 °N, 72.27 °W | Change Station

Current weather conditions updated 27 minutes ago

Scattered Clouds
Scattered Clouds
81 °F
Feels Like 86 °F
N
6
Wind Variable Wind from ENE

Today is forecast to be Cooler than yesterday. A few thunderstorms possible tonight.

Today
High -- | Low -- °F
--% Chance of Precip.
Yesterday
High -- | Low -- °F
Precip. -- in
6:23 AM 7:32 PM
Waxing Crescent, 18% visible
Pressure 29.98 in
Visibility 6.2 miles
Clouds Scattered Clouds 1500 ft
Heat Index 86 °F
Dew Point 75 °F
Humidity 84%
Rainfall 0.00 in
Snow Depth Not available.
UV 0 out of 12
Pollen Not available.
Air Quality Not available.
Flu Activity Not available.
METAR MBPV 311100Z 07005KT 9999 SCT015 27/24 Q1015

More Conditions Fewer Conditions

Pressure 29.98 in
Visibility 6.2 miles
Clouds Scattered Clouds 1500 ft
Heat Index 86 °F
Dew Point 75 °F
Humidity 84%
Rainfall 0.00 in
Snow Depth Not available.
UV 0 out of 12
Pollen Not available.
Air Quality Not available.
Flu Activity Not available.
METAR MBPV 311100Z 07005KT 9999 SCT015 27/24 Q1015

More Conditions Fewer Conditions

10-Day Weather Forecast

Almanac

Astronomy

Jul. 31, 2014 Rise Set
Actual Time 6:23 AM EDT 7:32 PM EDT
Civil Twilight 5:59 AM EDT 7:56 PM EDT
Nautical Twilight 5:30 AM EDT 8:25 PM EDT
Astronomical Twilight 5:01 AM EDT 8:54 PM EDT
Moon 10:11 AM EDT 10:24 PM EDT
Length of Visible Light 13h 57m
Length of Day
13h 09m
Tomorrow will be 0m 57s shorter.
Waxing Crescent, 18% of the Moon is Illuminated
Today
Waxing Crescent
Aug 3
First Quarter
Aug 10
Full
Aug 17
Last Quarter
Aug 25
New

Yesterday's Extremes

Country Highs Country Lows

Community

WunderPhotos

Upload Photos

1,739,296 photos uploaded!

WunderBlogs® & News

Nearby

Snow Depth

Not available.

Earthquake Activity

City Distance Mag. Time & Date
No recent earthquake activity has been reported nearby.
Minimum magnitude displayed is 2.5.

Coastal Water Temperatures

Place Temperature
No Stations Reporting

Nearby Weather Stations

There are no personal weather stations in this area.